Time;durP1;ratioP1;P1;durP2;ratioP2;P2;SDS_P1;SDS_P2;PMS_P1;PMS_P2;Temp;Humidity;BMP_temperature;BMP_pressure;BME280_temperature;BME280_humidity;BME280_pressure;Samples;Min_cycle;Max_cycle;Signal;HPM_P1;HPM_P2
2024/01/18 00:00:35;;;;;;;4.57;0.98;;;1.30;99.90;;;;;;4864019;29;20049;-76
2024/01/18 00:03:02;;;;;;;5.05;0.60;;;1.20;99.90;;;;;;4863727;29;20386;-76
2024/01/18 00:05:27;;;;;;;7.43;1.02;;;1.20;99.90;;;;;;4863390;29;20060;-76
2024/01/18 00:07:53;;;;;;;5.60;0.63;;;1.20;99.90;;;;;;4863748;29;20053;-76
2024/01/18 00:10:26;;;;;;;13.27;0.98;;;1.10;99.90;;;;;;4863689;29;20409;-76
2024/01/18 00:12:55;;;;;;;5.07;1.23;;;1.00;99.90;;;;;;4863778;29;20557;-76
2024/01/18 00:15:21;;;;;;;4.95;0.60;;;1.00;99.90;;;;;;4863783;29;20143;-76
2024/01/18 00:17:47;;;;;;;2.95;0.60;;;0.90;99.90;;;;;;4863797;29;20113;-76
2024/01/18 00:20:13;;;;;;;2.95;0.63;;;0.90;99.90;;;;;;4863953;29;20049;-76
2024/01/18 00:22:39;;;;;;;7.18;1.23;;;0.90;99.90;;;;;;4863504;29;20049;-76
2024/01/18 00:25:08;;;;;;;9.93;0.82;;;0.80;99.90;;;;;;4863306;29;20045;-76
2024/01/18 00:27:33;;;;;;;4.72;0.93;;;0.80;99.90;;;;;;4863263;29;20044;-76
2024/01/18 00:29:59;;;;;;;2.70;0.22;;;0.80;99.90;;;;;;4863621;29;20196;-76
2024/01/18 00:32:25;;;;;;;3.90;0.57;;;0.80;99.90;;;;;;4879894;29;20053;-76
2024/01/18 00:34:51;;;;;;;5.57;1.10;;;0.80;99.90;;;;;;4863370;29;20485;-76
2024/01/18 00:37:17;;;;;;;4.13;0.80;;;0.80;99.90;;;;;;4863583;29;20041;-76
2024/01/18 00:39:46;;;;;;;3.63;0.50;;;0.90;99.90;;;;;;4863144;29;20067;-76
2024/01/18 00:42:12;;;;;;;5.13;0.47;;;1.10;99.90;;;;;;4863399;29;20056;-76
2024/01/18 00:44:37;;;;;;;3.28;0.38;;;1.30;99.90;;;;;;4863208;29;20045;-76
2024/01/18 00:47:06;;;;;;;4.43;0.40;;;1.40;99.90;;;;;;4863387;29;20135;-76
2024/01/18 00:49:31;;;;;;;4.57;0.50;;;1.50;99.90;;;;;;4863159;29;20510;-76
2024/01/18 00:51:58;;;;;;;1.95;0.40;;;1.60;99.90;;;;;;4863224;29;20135;-76
2024/01/18 00:54:27;;;;;;;3.05;0.30;;;1.60;99.90;;;;;;4862957;29;20074;-76
2024/01/18 00:56:52;;;;;;;5.78;0.90;;;1.70;99.90;;;;;;4863238;29;20049;-76
2024/01/18 00:59:18;;;;;;;2.30;0.63;;;1.60;99.90;;;;;;4863064;29;20490;-76
2024/01/18 01:01:43;;;;;;;2.97;0.77;;;1.70;99.90;;;;;;4863364;29;20037;-76
2024/01/18 01:04:09;;;;;;;2.92;0.25;;;1.70;99.90;;;;;;4863367;29;20389;-76
2024/01/18 01:06:37;;;;;;;3.92;0.50;;;1.80;99.90;;;;;;4863018;29;20474;-76
2024/01/18 01:09:06;;;;;;;5.32;0.40;;;1.80;99.90;;;;;;4862767;29;20438;-76
2024/01/18 01:11:32;;;;;;;3.42;0.50;;;1.80;99.90;;;;;;4862861;29;20049;-76
2024/01/18 01:13:57;;;;;;;7.25;0.45;;;1.80;99.90;;;;;;4862934;29;20053;-76
2024/01/18 01:16:24;;;;;;;3.55;0.47;;;1.70;99.90;;;;;;4862991;29;20052;-76
2024/01/18 01:18:49;;;;;;;6.97;0.77;;;1.70;99.90;;;;;;4866314;29;20053;-76
2024/01/18 01:21:15;;;;;;;4.78;0.35;;;1.60;99.90;;;;;;4867208;29;20063;-76
2024/01/18 01:23:44;;;;;;;2.78;0.50;;;1.50;99.90;;;;;;4866511;29;20135;-76
2024/01/18 01:26:09;;;;;;;3.95;0.20;;;1.40;99.90;;;;;;4866702;29;20557;-76
2024/01/18 01:28:38;;;;;;;3.25;0.32;;;1.40;99.90;;;;;;4866743;29;20041;-76
2024/01/18 01:31:04;;;;;;;5.25;0.50;;;1.30;99.90;;;;;;4866441;29;20041;-76
2024/01/18 01:33:30;;;;;;;5.35;0.30;;;1.20;99.90;;;;;;4883013;29;20080;-76
2024/01/18 01:35:56;;;;;;;5.78;0.30;;;1.30;99.90;;;;;;4866226;29;20083;-76
2024/01/18 01:38:22;;;;;;;1.65;0.35;;;1.20;99.90;;;;;;4866241;29;20378;-76
2024/01/18 01:40:50;;;;;;;1.75;0.40;;;1.20;99.90;;;;;;4866533;29;20553;-76
2024/01/18 01:43:17;;;;;;;6.28;0.85;;;1.10;99.90;;;;;;4883047;29;20056;-76
2024/01/18 01:45:43;;;;;;;2.03;0.30;;;1.00;99.90;;;;;;4882948;29;20049;-76
2024/01/18 01:48:10;;;;;;;4.82;0.30;;;1.00;99.90;;;;;;4866363;29;20045;-76
2024/01/18 01:50:36;;;;;;;3.50;0.40;;;0.90;99.90;;;;;;4882693;29;20378;-76
2024/01/18 01:53:03;;;;;;;4.53;0.45;;;0.80;99.90;;;;;;4883011;29;20045;-76
2024/01/18 01:55:28;;;;;;;1.90;0.52;;;0.70;99.90;;;;;;4866255;29;20053;-76
2024/01/18 01:57:54;;;;;;;2.47;0.40;;;0.60;99.90;;;;;;4866242;29;20135;-76
2024/01/18 02:00:21;;;;;;;3.55;0.30;;;0.60;99.90;;;;;;4866244;29;20437;-76
2024/01/18 02:02:51;;;;;;;2.00;0.40;;;0.50;99.90;;;;;;4865676;29;20045;-76
2024/01/18 02:05:17;;;;;;;3.65;0.35;;;0.50;99.90;;;;;;4865689;29;20092;-76
2024/01/18 02:07:42;;;;;;;3.83;0.50;;;0.40;99.90;;;;;;4865535;29;20057;-76
2024/01/18 02:10:09;;;;;;;3.13;0.43;;;0.40;99.90;;;;;;4865716;29;20061;-76
2024/01/18 02:12:35;;;;;;;9.25;0.73;;;0.30;99.90;;;;;;4865928;29;20049;-76
2024/01/18 02:15:01;;;;;;;2.75;0.40;;;0.30;99.90;;;;;;4882500;29;20397;-76
2024/01/18 02:17:28;;;;;;;4.70;0.50;;;0.30;99.90;;;;;;4882831;29;20442;-76
2024/01/18 02:19:54;;;;;;;2.40;0.40;;;0.20;99.90;;;;;;4882380;29;20128;-76
2024/01/18 02:22:24;;;;;;;2.70;0.43;;;0.20;99.90;;;;;;4865646;29;20140;-76
2024/01/18 02:24:53;;;;;;;4.10;0.30;;;0.20;99.90;;;;;;4865790;29;20101;-76
2024/01/18 02:27:20;;;;;;;6.25;0.40;;;0.10;99.90;;;;;;4882253;29;20064;-76
2024/01/18 02:29:46;;;;;;;3.97;0.60;;;0.10;99.90;;;;;;4881836;29;20048;-76
2024/01/18 02:32:12;;;;;;;4.47;0.40;;;0.10;99.90;;;;;;4865426;29;20049;-76
2024/01/18 02:34:39;;;;;;;1.90;0.30;;;0.10;99.90;;;;;;4865167;29;20059;-76
2024/01/18 02:37:06;;;;;;;5.53;0.68;;;0.10;99.90;;;;;;4865534;29;20084;-76
2024/01/18 02:39:32;;;;;;;4.35;0.50;;;0.10;99.90;;;;;;4865217;29;20049;-76
2024/01/18 02:41:57;;;;;;;2.13;0.30;;;0.10;99.90;;;;;;4865586;29;20048;-76
2024/01/18 02:44:25;;;;;;;1.52;0.30;;;0.10;99.90;;;;;;4882049;29;20064;-76
2024/01/18 02:46:50;;;;;;;4.60;0.35;;;0.10;99.90;;;;;;4865555;29;20084;-76
2024/01/18 02:49:16;;;;;;;2.45;0.45;;;0.10;99.90;;;;;;4865162;29;20405;-76
2024/01/18 02:51:42;;;;;;;1.55;0.20;;;0.10;99.90;;;;;;4865158;29;20477;-76
2024/01/18 02:54:07;;;;;;;2.15;0.57;;;0.10;99.90;;;;;;4864957;29;20133;-76
2024/01/18 02:56:33;;;;;;;7.95;0.70;;;0.30;99.90;;;;;;4865297;29;20045;-76
2024/01/18 02:58:58;;;;;;;5.88;0.52;;;0.70;99.90;;;;;;4865001;29;20056;-76
2024/01/18 03:01:24;;;;;;;8.40;0.63;;;1.10;99.90;;;;;;4864789;29;20048;-76
2024/01/18 03:03:50;;;;;;;4.43;0.63;;;1.40;99.90;;;;;;4864796;29;20049;-76
2024/01/18 03:06:15;;;;;;;4.70;0.70;;;1.50;99.90;;;;;;4864829;29;20053;-76
2024/01/18 03:08:41;;;;;;;1.92;0.30;;;1.60;99.90;;;;;;4864515;29;20069;-76
2024/01/18 03:11:12;;;;;;;2.45;0.40;;;1.60;99.90;;;;;;4864783;29;20053;-76
2024/01/18 03:13:41;;;;;;;7.25;1.13;;;1.60;99.90;;;;;;4864569;29;20056;-76
2024/01/18 03:16:11;;;;;;;7.40;0.70;;;1.70;99.90;;;;;;4864752;29;20100;-76
2024/01/18 03:18:37;;;;;;;3.10;0.35;;;1.70;99.90;;;;;;4881168;29;20393;-76
2024/01/18 03:21:09;;;;;;;3.53;0.50;;;1.60;99.90;;;;;;4864925;29;20048;-76
2024/01/18 03:23:38;;;;;;;5.72;0.88;;;1.70;99.90;;;;;;4864774;29;20103;-76
2024/01/18 03:26:03;;;;;;;2.50;0.60;;;1.70;99.90;;;;;;4864413;29;20049;-76
2024/01/18 03:28:32;;;;;;;2.25;0.20;;;1.60;99.90;;;;;;4864539;29;20063;-76
2024/01/18 03:31:00;;;;;;;3.20;0.35;;;1.70;99.90;;;;;;4864485;29;20141;-76
2024/01/18 03:33:26;;;;;;;3.03;0.50;;;1.70;99.90;;;;;;4864476;29;20193;-76
2024/01/18 03:35:51;;;;;;;3.50;0.40;;;1.70;99.90;;;;;;4864291;29;20045;-76
2024/01/18 03:38:19;;;;;;;2.65;0.20;;;1.60;99.90;;;;;;4860367;29;20057;-76
2024/01/18 03:40:45;;;;;;;0.88;0.20;;;1.60;99.90;;;;;;4863826;29;20055;-76
2024/01/18 03:43:14;;;;;;;4.43;0.38;;;1.50;99.90;;;;;;4864042;29;20428;-76
2024/01/18 03:45:40;;;;;;;2.13;0.20;;;1.50;99.90;;;;;;4864006;29;20056;-76
2024/01/18 03:48:05;;;;;;;0.95;0.30;;;1.50;99.90;;;;;;4864081;29;20049;-76
2024/01/18 03:50:31;;;;;;;3.78;0.28;;;1.40;99.90;;;;;;4880749;29;20178;-76
2024/01/18 03:52:56;;;;;;;4.20;0.30;;;1.40;99.90;;;;;;4864165;29;20059;-76
2024/01/18 03:55:22;;;;;;;2.67;0.20;;;1.30;99.90;;;;;;4880656;29;20048;-76
2024/01/18 03:57:48;;;;;;;1.17;0.22;;;1.30;99.90;;;;;;4864046;29;20053;-76
2024/01/18 04:00:14;;;;;;;2.55;0.30;;;1.20;99.90;;;;;;4880552;29;20048;-76
2024/01/18 04:02:40;;;;;;;2.40;0.20;;;1.20;99.90;;;;;;4864070;29;20103;-76
2024/01/18 04:05:07;;;;;;;1.15;0.30;;;1.20;99.90;;;;;;4864002;29;20049;-76
2024/01/18 04:07:32;;;;;;;3.08;0.35;;;1.10;99.90;;;;;;4863546;29;20132;-76
2024/01/18 04:10:00;;;;;;;0.70;0.20;;;1.10;99.90;;;;;;4863819;29;20140;-76
2024/01/18 04:12:26;;;;;;;1.73;0.30;;;1.10;99.90;;;;;;4863467;29;20056;-76
2024/01/18 04:14:51;;;;;;;3.55;0.20;;;1.10;99.90;;;;;;4863496;29;20045;-76
2024/01/18 04:17:17;;;;;;;1.75;0.28;;;1.10;99.90;;;;;;4863843;29;20120;-76
2024/01/18 04:19:43;;;;;;;2.38;0.30;;;1.10;99.90;;;;;;4863600;29;20068;-76
2024/01/18 04:22:09;;;;;;;2.20;1.05;;;1.30;99.90;;;;;;4863882;29;20055;-76
2024/01/18 04:24:35;;;;;;;2.88;0.40;;;1.30;99.90;;;;;;4863504;29;20104;-76
2024/01/18 04:27:03;;;;;;;4.30;0.60;;;1.30;99.90;;;;;;4863480;29;20477;-76
2024/01/18 04:29:30;;;;;;;22.67;2.30;;;1.30;99.90;;;;;;4863198;29;20069;-76
2024/01/18 04:31:55;;;;;;;8.95;0.75;;;1.20;99.90;;;;;;4880140;29;20093;-76
2024/01/18 04:34:21;;;;;;;7.05;0.80;;;1.20;99.90;;;;;;4863321;29;20060;-76
2024/01/18 04:36:47;;;;;;;3.55;0.77;;;1.00;99.90;;;;;;4863606;29;20419;-76
2024/01/18 04:39:14;;;;;;;6.38;1.05;;;1.00;99.90;;;;;;4863317;29;20136;-76
2024/01/18 04:41:40;;;;;;;2.85;0.45;;;1.00;99.90;;;;;;4863214;29;20060;-76
2024/01/18 04:44:05;;;;;;;3.88;0.40;;;0.90;99.90;;;;;;4863075;29;20049;-76
2024/01/18 04:46:31;;;;;;;3.50;0.60;;;0.80;99.90;;;;;;4863360;29;20075;-76
2024/01/18 04:49:00;;;;;;;5.28;0.82;;;0.70;99.90;;;;;;4863217;29;20057;-76
2024/01/18 04:51:25;;;;;;;0.95;0.15;;;0.60;99.90;;;;;;4863323;29;20049;-76
2024/01/18 04:53:51;;;;;;;5.88;0.60;;;0.60;99.90;;;;;;4862978;29;20061;-76
2024/01/18 04:56:17;;;;;;;1.83;0.32;;;0.50;99.90;;;;;;4879904;29;20037;-76
2024/01/18 04:58:43;;;;;;;2.10;0.77;;;0.50;99.90;;;;;;4863254;29;20096;-76
2024/01/18 05:01:09;;;;;;;2.92;0.20;;;0.50;99.90;;;;;;4863131;29;20056;-76
2024/01/18 05:03:34;;;;;;;4.05;0.70;;;0.60;99.90;;;;;;4863374;29;20053;-76
2024/01/18 05:06:00;;;;;;;3.38;0.43;;;0.60;99.90;;;;;;4863124;29;20053;-76
2024/01/18 05:08:29;;;;;;;3.08;0.40;;;0.70;99.90;;;;;;4862728;29;20057;-76
2024/01/18 05:10:55;;;;;;;1.45;0.40;;;0.60;99.90;;;;;;4862880;29;20101;-76
2024/01/18 05:13:21;;;;;;;2.60;0.20;;;0.60;99.90;;;;;;4863115;29;20137;-76
2024/01/18 05:15:47;;;;;;;2.90;0.30;;;0.60;99.90;;;;;;4862943;29;20077;-76
2024/01/18 05:18:16;;;;;;;2.65;0.40;;;0.60;99.90;;;;;;4863272;29;20095;-76
2024/01/18 05:20:41;;;;;;;2.60;0.30;;;0.60;99.90;;;;;;4863174;29;20100;-76
2024/01/18 05:23:07;;;;;;;2.38;0.38;;;0.60;99.90;;;;;;4879676;29;20084;-76
2024/01/18 05:25:39;;;;;;;5.25;0.82;;;0.50;99.90;;;;;;4862828;29;20060;-76
2024/01/18 05:28:05;;;;;;;2.28;0.30;;;0.50;99.90;;;;;;4862815;29;20053;-76
2024/01/18 05:30:30;;;;;;;1.25;0.32;;;0.40;99.90;;;;;;4863020;29;20048;-76
2024/01/18 05:32:56;;;;;;;3.60;0.30;;;0.40;99.90;;;;;;4863058;29;20131;-76
2024/01/18 05:35:21;;;;;;;3.72;0.40;;;0.40;99.90;;;;;;4862956;29;20051;-76
2024/01/18 05:37:47;;;;;;;3.42;0.50;;;0.30;99.90;;;;;;4862763;29;20450;-76
2024/01/18 05:40:13;;;;;;;2.70;0.20;;;0.30;99.90;;;;;;4861972;29;20072;-76
2024/01/18 05:42:39;;;;;;;2.60;0.40;;;0.20;99.90;;;;;;4862727;29;20053;-76
2024/01/18 05:45:05;;;;;;;3.55;0.50;;;0.20;99.90;;;;;;4862769;29;20064;-76
2024/01/18 05:47:31;;;;;;;2.22;0.60;;;0.20;99.90;;;;;;4863067;29;20068;-76
2024/01/18 05:49:57;;;;;;;3.67;0.80;;;0.10;99.90;;;;;;4862855;29;20397;-76
2024/01/18 05:52:22;;;;;;;3.30;0.40;;;0.10;99.90;;;;;;4862623;29;20401;-76
2024/01/18 05:54:48;;;;;;;0.63;0.20;;;0.10;99.90;;;;;;4862517;29;20048;-76
2024/01/18 05:57:14;;;;;;;3.53;0.40;;;0.10;99.90;;;;;;4862898;29;20401;-76
2024/01/18 05:59:39;;;;;;;1.95;0.30;;;0.00;99.90;;;;;;4862632;29;20041;-76
2024/01/18 06:02:05;;;;;;;2.35;0.60;;;0.00;99.90;;;;;;4862816;29;20102;-76
2024/01/18 06:04:31;;;;;;;0.98;0.25;;;0.00;99.90;;;;;;4881838;29;20049;-76
2024/01/18 06:06:57;;;;;;;6.00;0.73;;;0.00;99.90;;;;;;4866019;29;20108;-76
2024/01/18 06:09:23;;;;;;;6.50;0.85;;;0.00;99.90;;;;;;4865637;29;20059;-76
2024/01/18 06:11:49;;;;;;;4.13;0.45;;;0.00;99.90;;;;;;4865972;29;20139;-76
2024/01/18 06:14:15;;;;;;;2.72;0.70;;;0.00;99.90;;;;;;4865725;29;20416;-76
2024/01/18 06:16:41;;;;;;;1.48;0.35;;;0.00;99.90;;;;;;4865974;29;20055;-76
2024/01/18 06:19:08;;;;;;;1.63;0.40;;;0.00;99.90;;;;;;4865655;29;20049;-76
2024/01/18 06:21:33;;;;;;;2.95;0.40;;;0.00;99.90;;;;;;4865740;29;20053;-76
2024/01/18 06:23:59;;;;;;;4.28;0.43;;;0.00;99.90;;;;;;4865788;29;20048;-76
2024/01/18 06:26:25;;;;;;;2.35;0.60;;;0.00;99.90;;;;;;4865450;29;20101;-76
2024/01/18 06:28:50;;;;;;;7.30;0.82;;;0.00;99.90;;;;;;4865556;29;20049;-76
2024/01/18 06:31:19;;;;;;;3.65;1.17;;;0.00;99.90;;;;;;4865381;29;20049;-76
2024/01/18 06:33:45;;;;;;;3.45;0.40;;;0.00;99.90;;;;;;4865289;29;20053;-76
2024/01/18 06:36:12;;;;;;;4.35;0.45;;;0.00;99.90;;;;;;4865571;29;20063;-75
2024/01/18 06:38:37;;;;;;;3.53;0.50;;;0.00;99.90;;;;;;4865282;29;20128;-76
2024/01/18 06:41:03;;;;;;;2.90;0.40;;;0.00;99.90;;;;;;4865473;29;20128;-76
2024/01/18 06:43:29;;;;;;;3.42;0.32;;;0.00;99.90;;;;;;4865254;29;20049;-76
2024/01/18 06:45:55;;;;;;;2.10;0.50;;;-0.10;99.90;;;;;;4865238;29;20053;-76
2024/01/18 06:48:24;;;;;;;2.53;0.40;;;-0.10;99.90;;;;;;4881726;29;20084;-76
2024/01/18 06:50:53;;;;;;;1.05;0.35;;;-0.10;99.90;;;;;;4865245;29;20045;-76
2024/01/18 06:53:19;;;;;;;2.42;0.60;;;-0.10;99.90;;;;;;4864871;29;20052;-76
2024/01/18 06:55:45;;;;;;;2.40;0.40;;;-0.20;99.90;;;;;;4865016;29;20049;-76
2024/01/18 06:58:10;;;;;;;2.05;0.30;;;-0.20;99.90;;;;;;4865241;29;20155;-76
2024/01/18 07:00:36;;;;;;;3.92;0.52;;;-0.20;99.90;;;;;;4865168;29;20398;-76
2024/01/18 07:03:02;;;;;;;1.50;0.40;;;-0.10;99.90;;;;;;4864779;29;20401;-76
2024/01/18 07:05:28;;;;;;;1.98;0.50;;;-0.20;99.90;;;;;;4864712;29;20045;-76
2024/01/18 07:07:53;;;;;;;2.05;0.32;;;-0.20;99.90;;;;;;4864510;29;20068;-76
2024/01/18 07:10:23;;;;;;;3.80;0.77;;;-0.20;99.90;;;;;;4864690;29;20061;-76
2024/01/18 07:12:49;;;;;;;6.30;0.47;;;-0.10;99.90;;;;;;4864762;29;20061;-76
2024/01/18 07:15:15;;;;;;;2.30;0.20;;;0.00;99.90;;;;;;4863594;29;20056;-76
2024/01/18 07:17:41;;;;;;;6.93;0.82;;;0.20;99.90;;;;;;4864699;29;20091;-76
2024/01/18 07:20:11;;;;;;;2.17;0.30;;;0.30;99.90;;;;;;4881100;29;20053;-76
2024/01/18 07:22:36;;;;;;;4.15;0.32;;;0.40;99.90;;;;;;4864481;29;20128;-76
2024/01/18 07:25:04;;;;;;;4.60;0.85;;;0.60;99.90;;;;;;4864510;29;20140;-77
2024/01/18 07:27:29;;;;;;;11.60;1.23;;;0.70;99.90;;;;;;4864668;29;20053;-76
2024/01/18 07:29:55;;;;;;;4.40;1.15;;;0.80;99.90;;;;;;4864314;29;20402;-77
2024/01/18 07:32:21;;;;;;;3.38;0.47;;;1.00;99.90;;;;;;4863971;29;20133;-76
2024/01/18 07:34:46;;;;;;;3.83;0.30;;;1.10;99.90;;;;;;4880619;29;20049;-76
2024/01/18 07:37:13;;;;;;;5.22;0.63;;;1.20;99.90;;;;;;4863968;29;20075;-77
2024/01/18 07:39:40;;;;;;;4.47;0.50;;;1.20;99.90;;;;;;4863596;29;20096;-76
2024/01/18 07:42:07;;;;;;;1.55;0.35;;;1.20;99.90;;;;;;4863413;29;20053;-76
2024/01/18 07:44:33;;;;;;;4.47;0.47;;;1.20;99.90;;;;;;4863900;29;20095;-76
2024/01/18 07:46:58;;;;;;;1.58;0.80;;;1.20;99.90;;;;;;4864209;29;20049;-76
2024/01/18 07:49:24;;;;;;;5.40;0.40;;;1.10;99.90;;;;;;4880782;29;20088;-77
2024/01/18 07:51:50;;;;;;;4.05;0.63;;;1.00;99.90;;;;;;4864215;29;20053;-76
2024/01/18 07:54:16;;;;;;;2.58;0.30;;;1.00;99.90;;;;;;4863695;29;20088;-74
2024/01/18 07:56:41;;;;;;;1.48;0.20;;;1.00;99.90;;;;;;4880704;29;20041;-76
2024/01/18 07:59:07;;;;;;;0.73;0.38;;;1.10;99.90;;;;;;4864079;29;20084;-76
2024/01/18 08:01:33;;;;;;;1.13;0.20;;;1.10;99.90;;;;;;4864147;29;20124;-76
2024/01/18 08:03:59;;;;;;;1.95;0.28;;;1.20;99.90;;;;;;4863565;29;20053;-76
2024/01/18 08:06:25;;;;;;;0.65;0.20;;;1.20;99.90;;;;;;4863631;29;20545;-76
2024/01/18 08:08:51;;;;;;;2.28;0.40;;;1.40;99.90;;;;;;4863482;29;20562;-77
2024/01/18 08:11:20;;;;;;;2.67;0.30;;;1.50;99.90;;;;;;4873759;29;20109;-75
2024/01/18 08:13:46;;;;;;;0.38;0.15;;;1.50;99.90;;;;;;4849486;29;20073;-76
2024/01/18 08:16:11;;;;;;;1.77;0.20;;;1.50;99.90;;;;;;4844854;29;20458;-76
2024/01/18 08:18:38;;;;;;;3.55;0.10;;;1.60;99.90;;;;;;4844863;29;20057;-78
2024/01/18 08:21:04;;;;;;;4.13;0.57;;;1.50;99.90;;;;;;4844800;29;20045;-77
2024/01/18 08:23:30;;;;;;;0.73;0.47;;;1.40;99.90;;;;;;4844984;29;20053;-75
2024/01/18 08:25:56;;;;;;;3.20;0.20;;;1.50;99.90;;;;;;4844649;29;20053;-75
2024/01/18 08:28:24;;;;;;;2.75;0.22;;;1.40;99.90;;;;;;4844594;29;20475;-75
2024/01/18 08:30:50;;;;;;;2.90;0.20;;;1.50;99.90;;;;;;4844907;29;20053;-80
2024/01/18 08:33:16;;;;;;;3.85;0.32;;;1.50;99.90;;;;;;4844485;29;20455;-76
2024/01/18 08:35:42;;;;;;;2.33;0.28;;;1.50;99.90;;;;;;4844807;29;20095;-76
2024/01/18 08:38:08;;;;;;;3.22;0.40;;;1.50;99.90;;;;;;4844823;29;20057;-76
2024/01/18 08:40:34;;;;;;;4.78;0.55;;;1.50;99.90;;;;;;4860972;29;20397;-76
2024/01/18 08:43:01;;;;;;;3.15;0.60;;;1.50;99.90;;;;;;4844384;29;20585;-75
2024/01/18 08:45:29;;;;;;;2.20;0.65;;;1.70;99.90;;;;;;4844501;29;20053;-76
2024/01/18 08:47:54;;;;;;;3.10;0.50;;;1.70;99.90;;;;;;4844693;29;20057;-75
2024/01/18 08:50:22;;;;;;;3.25;0.50;;;1.80;99.90;;;;;;4844545;29;20114;-76
2024/01/18 08:52:51;;;;;;;3.00;0.60;;;1.90;99.90;;;;;;4844660;29;20057;-76
2024/01/18 08:55:17;;;;;;;3.05;0.75;;;1.90;99.90;;;;;;4844501;29;20081;-76
2024/01/18 08:57:43;;;;;;;9.52;1.65;;;1.80;99.90;;;;;;4844567;29;20550;-76
2024/01/18 09:00:13;;;;;;;3.10;0.50;;;1.90;99.90;;;;;;4844398;29;20057;-75
2024/01/18 09:02:42;;;;;;;3.92;0.70;;;2.00;99.90;;;;;;4844229;29;20509;-75
2024/01/18 09:05:08;;;;;;;0.63;0.38;;;1.90;99.90;;;;;;4844488;29;20045;-76
2024/01/18 09:07:34;;;;;;;7.78;0.40;;;1.90;99.90;;;;;;4844118;29;20473;-76
2024/01/18 09:10:01;;;;;;;5.22;1.77;;;1.90;99.90;;;;;;4844500;29;20061;-75
2024/01/18 09:12:27;;;;;;;5.28;0.47;;;1.90;99.90;;;;;;4844261;29;20084;-75
2024/01/18 09:14:54;;;;;;;2.50;0.30;;;1.80;99.90;;;;;;4844175;29;20088;-75
2024/01/18 09:17:20;;;;;;;3.53;0.45;;;1.80;99.90;;;;;;4844207;29;20410;-75
2024/01/18 09:19:46;;;;;;;1.10;0.17;;;1.80;99.90;;;;;;4844041;29;20545;-75
2024/01/18 09:22:18;;;;;;;0.68;0.30;;;1.80;99.90;;;;;;4844151;29;20053;-75
2024/01/18 09:24:44;;;;;;;3.30;1.95;;;1.80;99.90;;;;;;4844282;29;20136;-76
2024/01/18 09:27:11;;;;;;;5.70;0.65;;;1.90;99.90;;;;;;4844042;29;20053;-77
2024/01/18 09:29:37;;;;;;;3.95;0.40;;;1.90;99.90;;;;;;4843979;29;20050;-77
2024/01/18 09:32:03;;;;;;;6.05;0.73;;;2.00;99.90;;;;;;4844278;29;20069;-76
2024/01/18 09:34:29;;;;;;;6.78;0.47;;;2.10;99.90;;;;;;4843796;29;20049;-77
2024/01/18 09:36:55;;;;;;;4.72;0.80;;;2.10;99.90;;;;;;4844174;29;20094;-77
2024/01/18 09:39:20;;;;;;;7.50;0.38;;;2.20;99.90;;;;;;4846438;29;20045;-77
2024/01/18 09:41:51;;;;;;;2.38;0.20;;;2.30;99.90;;;;;;4847717;29;20062;-77
2024/01/18 09:44:24;;;;;;;3.15;0.40;;;2.30;99.90;;;;;;4847613;29;20053;-77
2024/01/18 09:46:50;;;;;;;5.22;1.10;;;2.40;99.90;;;;;;4847484;29;20053;-77
2024/01/18 09:49:16;;;;;;;3.60;0.60;;;2.50;99.90;;;;;;4847473;29;20113;-78
2024/01/18 09:51:43;;;;;;;3.92;0.80;;;2.70;99.90;;;;;;4847446;29;20550;-77
2024/01/18 09:54:09;;;;;;;6.70;0.63;;;2.80;99.90;;;;;;4847168;29;20049;-77
2024/01/18 09:56:42;;;;;;;2.17;0.30;;;2.90;99.90;;;;;;4847122;29;20185;-76
2024/01/18 09:59:10;;;;;;;3.22;0.43;;;3.00;99.90;;;;;;4847536;29;20057;-77
2024/01/18 10:01:39;;;;;;;5.05;0.30;;;3.00;99.90;;;;;;4847428;29;20053;-78
2024/01/18 10:04:05;;;;;;;2.97;0.40;;;3.10;99.90;;;;;;4854902;29;20045;-77
2024/01/18 10:06:31;;;;;;;8.82;0.57;;;3.00;99.90;;;;;;4875088;29;20400;-77
2024/01/18 10:08:56;;;;;;;4.18;1.05;;;3.00;99.90;;;;;;4874110;29;20128;-77
2024/01/18 10:11:22;;;;;;;0.65;0.30;;;3.00;99.90;;;;;;4868761;29;20053;-77
2024/01/18 10:13:50;;;;;;;1.42;0.20;;;3.20;99.90;;;;;;4865460;29;20550;-77
2024/01/18 10:16:32;;;;;;;2.15;0.47;;;3.20;99.90;;;;;;4890009;29;20084;-77
2024/01/18 10:19:02;;;;;;;8.18;1.75;;;3.20;99.90;;;;;;4872995;29;20051;-78
2024/01/18 10:21:28;;;;;;;3.70;0.30;;;3.40;99.90;;;;;;4897698;29;20120;-78
2024/01/18 10:23:54;;;;;;;5.95;0.65;;;3.50;99.90;;;;;;4873353;29;20162;-78
2024/01/18 10:26:22;;;;;;;3.88;0.77;;;3.70;99.90;;;;;;4869969;29;20056;-78
2024/01/18 10:28:48;;;;;;;5.55;0.70;;;3.80;99.90;;;;;;4892549;29;20080;-78
2024/01/18 10:31:14;;;;;;;2.15;1.17;;;3.80;99.90;;;;;;4867341;29;20091;-78
2024/01/18 10:33:40;;;;;;;2.95;0.28;;;3.80;99.90;;;;;;4873782;29;20497;-78
2024/01/18 10:36:06;;;;;;;6.93;0.40;;;3.80;99.90;;;;;;4865104;29;20412;-77
2024/01/18 10:38:35;;;;;;;3.72;0.43;;;3.90;99.90;;;;;;4896049;29;20041;-77
2024/01/18 10:41:02;;;;;;;4.93;0.30;;;3.90;99.90;;;;;;4865063;29;20065;-77
2024/01/18 10:43:32;;;;;;;6.03;0.35;;;3.80;99.90;;;;;;4896214;29;20036;-78
2024/01/18 10:45:59;;;;;;;3.70;1.13;;;3.70;99.90;;;;;;4865018;29;20057;-78
2024/01/18 10:48:29;;;;;;;3.47;0.43;;;3.70;99.90;;;;;;4895732;29;20140;-78
2024/01/18 10:50:56;;;;;;;3.17;0.63;;;3.70;99.90;;;;;;4895621;29;20041;-77
2024/01/18 10:53:33;;;;;;;5.18;0.47;;;3.60;99.90;;;;;;4895749;29;20045;-77
2024/01/18 10:55:59;;;;;;;3.33;0.35;;;3.70;99.90;;;;;;4895562;29;20498;-77
2024/01/18 10:58:25;;;;;;;2.67;0.30;;;3.70;99.90;;;;;;4864798;29;20051;-77
2024/01/18 11:00:52;;;;;;;3.70;0.57;;;3.90;99.90;;;;;;4881477;29;20404;-77
2024/01/18 11:03:18;;;;;;;3.10;0.32;;;4.00;99.90;;;;;;4876137;29;20560;-77
2024/01/18 11:05:51;;;;;;;4.85;0.68;;;4.20;99.90;;;;;;4883367;29;20058;-77
2024/01/18 11:08:18;;;;;;;4.07;0.50;;;4.30;99.90;;;;;;4884776;29;20067;-77
2024/01/18 11:10:46;;;;;;;7.30;0.75;;;4.30;99.90;;;;;;4881034;29;20045;-77
2024/01/18 11:13:15;;;;;;;3.85;0.40;;;4.20;99.90;;;;;;4895444;29;20093;-77
2024/01/18 11:15:42;;;;;;;5.35;1.83;;;4.00;99.90;;;;;;4895253;29;20564;-77
2024/01/18 11:18:09;;;;;;;2.53;0.80;;;3.90;99.90;;;;;;4895565;29;20131;-77
2024/01/18 11:20:58;;;;;;;3.03;0.70;;;3.70;99.90;;;;;;4896650;29;20097;-78
2024/01/18 11:23:35;;;;;;;2.83;0.50;;;3.50;99.90;;;;;;4882979;29;20120;-77
2024/01/18 11:26:04;;;;;;;5.25;0.60;;;3.30;99.90;;;;;;4882925;29;20088;-77
2024/01/18 11:28:30;;;;;;;4.88;1.05;;;3.30;99.90;;;;;;4882911;29;20071;-77
2024/01/18 11:30:56;;;;;;;3.70;0.50;;;3.10;99.90;;;;;;4882687;29;20040;-78
2024/01/18 11:33:22;;;;;;;5.00;0.60;;;3.00;99.90;;;;;;4882769;29;20045;-77
2024/01/18 11:35:52;;;;;;;4.72;0.43;;;3.00;99.90;;;;;;4882775;29;20044;-77
2024/01/18 11:38:27;;;;;;;9.95;1.00;;;3.00;99.90;;;;;;4882505;29;20104;-76
2024/01/18 11:40:57;;;;;;;4.03;0.95;;;3.10;99.90;;;;;;4882752;29;20059;-76
2024/01/18 11:44:00;;;;;;;3.50;0.40;;;3.20;99.90;;;;;;4882475;29;20113;-77
2024/01/18 11:46:38;;;;;;;8.90;1.05;;;3.30;99.90;;;;;;4882662;29;20461;-77
2024/01/18 11:49:05;;;;;;;4.53;0.98;;;3.50;99.90;;;;;;4882290;29;20538;-76
2024/01/18 11:51:31;;;;;;;3.47;0.77;;;3.60;99.90;;;;;;4882307;29;20058;-76
2024/01/18 11:54:00;;;;;;;6.80;0.50;;;3.70;99.90;;;;;;4882344;29;20060;-77
2024/01/18 11:56:28;;;;;;;5.85;0.70;;;3.80;99.90;;;;;;4882415;29;20174;-76
2024/01/18 11:58:54;;;;;;;3.15;0.45;;;3.90;99.90;;;;;;4874470;29;20067;-76
2024/01/18 12:01:20;;;;;;;3.25;0.88;;;4.10;99.90;;;;;;4893951;29;20045;-77
2024/01/18 12:03:47;;;;;;;2.65;0.52;;;4.10;99.90;;;;;;4897557;29;20103;-77
2024/01/18 12:06:13;;;;;;;3.53;0.50;;;4.20;99.90;;;;;;4882203;29;20137;-77
2024/01/18 12:08:40;;;;;;;5.05;1.10;;;4.30;99.90;;;;;;4882082;29;20063;-78
2024/01/18 12:11:07;;;;;;;5.93;0.60;;;4.40;99.90;;;;;;4882254;29;20063;-77
2024/01/18 12:13:33;;;;;;;6.03;0.55;;;4.50;99.90;;;;;;4878838;29;20082;-77
2024/01/18 12:15:59;;;;;;;2.92;0.68;;;4.60;99.90;;;;;;4863587;29;20457;-77
2024/01/18 12:18:25;;;;;;;1.80;0.30;;;4.70;99.90;;;;;;4863597;29;20135;-77
2024/01/18 12:20:51;;;;;;;7.13;0.73;;;4.70;99.90;;;;;;4863512;29;20481;-77
2024/01/18 12:23:16;;;;;;;3.60;0.40;;;4.70;99.90;;;;;;4863458;29;20425;-77
2024/01/18 12:25:43;;;;;;;2.35;0.25;;;4.90;99.90;;;;;;4863134;29;20085;-76
2024/01/18 12:28:10;;;;;;;2.70;0.45;;;4.90;99.90;;;;;;4863379;29;20060;-76
2024/01/18 12:30:40;;;;;;;6.53;0.70;;;5.00;99.90;;;;;;4863193;29;20057;-77
2024/01/18 12:33:06;;;;;;;3.47;1.13;;;5.00;99.90;;;;;;4863022;29;20124;-77
2024/01/18 12:35:36;;;;;;;4.38;0.35;;;5.00;99.90;;;;;;4863291;29;20052;-76
2024/01/18 12:38:02;;;;;;;3.97;0.38;;;5.00;99.90;;;;;;4863146;29;20049;-76
2024/01/18 12:40:28;;;;;;;5.15;0.63;;;5.10;99.90;;;;;;4879546;29;20425;-77
2024/01/18 12:43:02;;;;;;;7.82;0.68;;;5.10;99.90;;;;;;4863025;29;20499;-77
2024/01/18 12:45:28;;;;;;;4.85;0.43;;;5.00;99.90;;;;;;4863267;29;20053;-77
2024/01/18 12:47:54;;;;;;;4.55;0.43;;;5.20;99.90;;;;;;4862921;29;20060;-77
2024/01/18 12:50:20;;;;;;;6.95;0.90;;;5.10;99.90;;;;;;4863350;29;20053;-76
2024/01/18 12:52:48;;;;;;;4.53;1.30;;;5.20;99.90;;;;;;4862890;29;20398;-76
2024/01/18 12:55:14;;;;;;;3.78;0.28;;;5.20;99.90;;;;;;4862805;29;20135;-78